createdAt,value
2018-10-06T00:01:10.189Z,11.90
2018-10-06T00:03:37.824Z,11.90
2018-10-06T00:06:05.430Z,11.80
2018-10-06T00:08:33.008Z,11.80
2018-10-06T00:11:00.606Z,11.80
2018-10-06T00:13:28.948Z,11.80
2018-10-06T00:15:57.049Z,11.80
2018-10-06T00:18:26.009Z,11.80
2018-10-06T00:20:54.037Z,11.80
2018-10-06T00:23:21.605Z,11.80
2018-10-06T00:25:49.214Z,11.80
2018-10-06T00:28:16.757Z,11.80
2018-10-06T00:30:44.374Z,11.80
2018-10-06T00:33:12.585Z,11.80
2018-10-06T00:35:40.305Z,11.70
2018-10-06T00:38:07.880Z,11.60
2018-10-06T00:40:35.456Z,11.60
2018-10-06T00:43:03.041Z,11.70
2018-10-06T00:45:30.642Z,11.70
2018-10-06T00:47:58.318Z,11.70
2018-10-06T00:50:25.932Z,11.80
2018-10-06T00:52:53.560Z,11.80
2018-10-06T00:55:21.165Z,11.80
2018-10-06T00:57:48.730Z,11.80
2018-10-06T01:00:16.432Z,11.80
2018-10-06T01:02:44.010Z,11.90
2018-10-06T01:05:11.685Z,11.80
2018-10-06T01:07:39.251Z,11.80
2018-10-06T01:10:07.134Z,11.80
2018-10-06T01:12:35.129Z,11.80
2018-10-06T01:15:02.794Z,11.70
2018-10-06T01:17:30.354Z,11.70
2018-10-06T01:19:57.926Z,11.80
2018-10-06T01:22:25.610Z,11.80
2018-10-06T01:24:53.194Z,11.70
2018-10-06T01:27:20.745Z,11.70
2018-10-06T01:29:48.349Z,11.60
2018-10-06T01:32:15.924Z,11.50
2018-10-06T01:34:43.509Z,11.50
2018-10-06T01:37:11.169Z,11.50
2018-10-06T01:39:39.393Z,11.50
2018-10-06T01:42:07.005Z,11.40
2018-10-06T01:44:34.609Z,11.50
2018-10-06T01:47:02.217Z,11.30
2018-10-06T01:49:29.797Z,11.30
2018-10-06T01:52:00.413Z,11.30
2018-10-06T01:54:27.981Z,11.20
2018-10-06T01:56:55.654Z,11.20
2018-10-06T01:59:23.249Z,11.10
2018-10-06T02:01:51.019Z,11.10
2018-10-06T02:04:23.165Z,11.10
2018-10-06T02:06:51.883Z,11.10
2018-10-06T02:09:19.437Z,11.00
2018-10-06T02:11:47.013Z,11.00
2018-10-06T02:14:14.572Z,11.00
2018-10-06T02:16:42.166Z,11.10
2018-10-06T02:19:09.733Z,11.10
2018-10-06T02:21:37.357Z,11.10
2018-10-06T02:24:04.940Z,11.10
2018-10-06T02:26:32.598Z,11.10
2018-10-06T02:29:00.198Z,11.10
2018-10-06T02:31:27.783Z,11.20
2018-10-06T02:33:55.469Z,11.20
2018-10-06T02:36:23.118Z,11.20
2018-10-06T02:38:50.681Z,11.20
2018-10-06T02:41:18.338Z,11.20
2018-10-06T02:43:46.617Z,11.20
2018-10-06T02:46:14.238Z,11.30
2018-10-06T02:48:41.933Z,11.30
2018-10-06T02:51:09.525Z,11.20
2018-10-06T02:53:37.503Z,11.20
2018-10-06T02:56:05.140Z,11.30
2018-10-06T02:58:32.700Z,11.30
2018-10-06T03:01:00.353Z,11.20
2018-10-06T03:03:27.919Z,11.20
2018-10-06T03:05:55.551Z,11.10
2018-10-06T03:08:23.158Z,11.10
2018-10-06T03:10:50.725Z,11.10
2018-10-06T03:13:18.269Z,11.20
2018-10-06T03:15:46.952Z,11.20
2018-10-06T03:18:15.493Z,11.30
2018-10-06T03:20:43.124Z,11.30
2018-10-06T03:23:10.711Z,11.30
2018-10-06T03:25:38.282Z,11.30
2018-10-06T03:28:05.862Z,11.30
2018-10-06T03:30:35.209Z,11.30
2018-10-06T03:33:02.824Z,11.30
2018-10-06T03:35:31.253Z,11.30
2018-10-06T03:38:02.609Z,11.30
2018-10-06T03:40:30.219Z,11.30
2018-10-06T03:42:58.957Z,11.20
2018-10-06T03:45:27.406Z,11.20
2018-10-06T03:47:54.973Z,11.20
2018-10-06T03:50:22.615Z,11.20
2018-10-06T03:52:50.265Z,11.20
2018-10-06T03:55:17.876Z,11.20
2018-10-06T03:57:45.453Z,11.20
2018-10-06T04:00:13.034Z,11.30
2018-10-06T04:02:40.667Z,11.30
2018-10-06T04:05:08.249Z,11.30
2018-10-06T04:07:35.861Z,11.30
2018-10-06T04:10:03.546Z,11.40
2018-10-06T04:12:31.134Z,11.50
2018-10-06T04:14:59.344Z,11.40
2018-10-06T04:17:28.492Z,11.40
2018-10-06T04:19:56.029Z,11.40
2018-10-06T04:22:23.760Z,11.30
2018-10-06T04:24:51.349Z,11.30
2018-10-06T04:27:19.046Z,11.10
2018-10-06T04:29:46.614Z,11.00
2018-10-06T04:32:16.741Z,11.10
2018-10-06T04:34:44.397Z,11.10
2018-10-06T04:37:11.970Z,11.20
2018-10-06T04:39:39.746Z,11.10
2018-10-06T04:42:07.325Z,11.10
2018-10-06T04:44:34.902Z,11.00
2018-10-06T04:47:02.593Z,11.00
2018-10-06T04:49:30.229Z,10.90
2018-10-06T04:51:57.914Z,10.90
2018-10-06T04:54:26.008Z,10.90
2018-10-06T04:56:56.589Z,10.90
2018-10-06T04:59:24.273Z,11.00
2018-10-06T05:01:51.833Z,11.00
2018-10-06T05:04:19.446Z,11.00
2018-10-06T05:06:47.038Z,11.10
2018-10-06T05:09:14.606Z,11.00
2018-10-06T05:11:42.145Z,11.00
2018-10-06T05:14:09.825Z,11.10
2018-10-06T05:16:37.405Z,11.10
2018-10-06T05:19:05.257Z,11.10
2018-10-06T05:21:32.803Z,11.10
2018-10-06T05:24:00.530Z,11.10
2018-10-06T05:26:28.124Z,11.10
2018-10-06T05:28:55.721Z,11.20
2018-10-06T05:31:23.273Z,11.20
2018-10-06T05:33:50.876Z,11.20
2018-10-06T05:36:18.433Z,11.10
2018-10-06T05:38:46.465Z,11.10
2018-10-06T05:41:14.030Z,11.10
2018-10-06T05:43:41.669Z,11.10
2018-10-06T05:46:09.237Z,11.10
2018-10-06T05:48:36.805Z,11.10
2018-10-06T05:51:05.333Z,11.20
2018-10-06T05:53:32.966Z,11.20
2018-10-06T05:56:00.535Z,11.20
2018-10-06T05:58:28.169Z,11.30
2018-10-06T06:00:55.742Z,11.30
2018-10-06T06:03:23.423Z,11.30
2018-10-06T06:05:51.089Z,11.30
2018-10-06T06:08:18.671Z,11.30
2018-10-06T06:10:46.288Z,11.20
2018-10-06T06:13:13.889Z,11.30
2018-10-06T06:15:41.637Z,11.30
2018-10-06T06:18:09.198Z,11.40
2018-10-06T06:20:36.878Z,11.50
2018-10-06T06:23:04.441Z,11.60
2018-10-06T06:25:32.045Z,11.50
2018-10-06T06:27:59.616Z,11.60
2018-10-06T06:30:27.217Z,11.60
2018-10-06T06:32:55.178Z,11.80
2018-10-06T06:35:24.462Z,11.80
2018-10-06T06:37:52.129Z,11.90
2018-10-06T06:40:19.746Z,12.00
2018-10-06T06:42:47.301Z,12.00
2018-10-06T06:45:17.053Z,12.10
2018-10-06T06:47:45.565Z,12.20
2018-10-06T06:50:13.169Z,12.30
2018-10-06T06:52:40.741Z,12.30
2018-10-06T06:55:08.428Z,12.50
2018-10-06T06:57:35.936Z,12.60
2018-10-06T07:00:04.701Z,12.70
2018-10-06T07:02:32.266Z,12.80
2018-10-06T07:04:59.831Z,13.00
2018-10-06T07:07:27.414Z,13.10
2018-10-06T07:09:55.048Z,13.20
2018-10-06T07:12:22.613Z,13.40
2018-10-06T07:14:50.295Z,13.50
2018-10-06T07:17:17.886Z,13.70
2018-10-06T07:19:47.294Z,13.80
2018-10-06T07:22:14.850Z,14.00
2018-10-06T07:24:42.459Z,14.00
2018-10-06T07:27:10.057Z,14.10
2018-10-06T07:29:37.686Z,14.30
2018-10-06T07:32:05.253Z,14.40
2018-10-06T07:34:34.934Z,14.50
2018-10-06T07:37:02.509Z,14.60
2018-10-06T07:39:30.801Z,14.70
2018-10-06T07:41:58.517Z,14.80
2018-10-06T07:44:26.100Z,14.90
2018-10-06T07:46:53.815Z,15.00
2018-10-06T07:49:21.725Z,15.20
2018-10-06T07:51:49.329Z,15.30
2018-10-06T07:54:16.910Z,15.40
2018-10-06T07:56:44.517Z,15.50
2018-10-06T07:59:12.099Z,15.50
2018-10-06T08:01:39.865Z,15.60
2018-10-06T08:04:07.465Z,15.60
2018-10-06T08:06:37.241Z,15.70
2018-10-06T08:09:06.225Z,15.80
2018-10-06T08:11:33.813Z,15.90
2018-10-06T08:14:01.351Z,15.90
2018-10-06T08:16:28.960Z,16.00
2018-10-06T08:18:56.504Z,16.20
2018-10-06T08:21:24.101Z,16.30
2018-10-06T08:23:51.746Z,16.50
2018-10-06T08:26:19.809Z,16.70
2018-10-06T08:28:47.476Z,16.80
2018-10-06T08:31:15.097Z,16.90
2018-10-06T08:33:42.749Z,17.00
2018-10-06T08:36:10.361Z,17.10
2018-10-06T08:38:37.912Z,17.30
2018-10-06T08:41:06.049Z,17.40
2018-10-06T08:43:33.981Z,17.40
2018-10-06T08:46:01.631Z,17.50
2018-10-06T08:48:29.501Z,17.50
2018-10-06T08:51:00.631Z,17.60
2018-10-06T08:53:28.953Z,17.60
2018-10-06T08:55:56.651Z,17.70
2018-10-06T08:58:24.174Z,17.80
2018-10-06T09:00:53.042Z,18.00
2018-10-06T09:03:21.481Z,18.10
2018-10-06T09:05:49.105Z,18.20
2018-10-06T09:08:16.752Z,18.40
2018-10-06T09:10:44.386Z,18.60
2018-10-06T09:13:11.992Z,18.70
2018-10-06T09:15:39.713Z,18.80
2018-10-06T09:18:07.269Z,18.90
2018-10-06T09:20:34.843Z,19.10
2018-10-06T09:23:02.494Z,19.10
2018-10-06T09:25:30.038Z,19.30
2018-10-06T09:27:57.612Z,19.40
2018-10-06T09:30:25.449Z,19.40
2018-10-06T09:32:53.070Z,19.50
2018-10-06T09:35:20.702Z,19.70
2018-10-06T09:37:48.301Z,19.90
2018-10-06T09:40:16.313Z,20.10
2018-10-06T09:42:44.034Z,20.20
2018-10-06T09:45:11.485Z,20.40
2018-10-06T09:47:39.090Z,20.40
2018-10-06T09:50:07.233Z,20.50
2018-10-06T09:52:35.018Z,20.60
2018-10-06T09:55:03.177Z,20.80
2018-10-06T09:57:30.765Z,20.90
2018-10-06T09:59:58.339Z,21.00
2018-10-06T10:02:33.309Z,21.10
2018-10-06T10:05:06.755Z,21.40
2018-10-06T10:07:35.839Z,21.60
2018-10-06T10:10:04.267Z,21.60
2018-10-06T10:12:42.553Z,21.80
2018-10-06T10:15:15.485Z,21.90
2018-10-06T10:17:43.188Z,22.00
2018-10-06T10:20:10.650Z,22.00
2018-10-06T10:22:38.336Z,22.00
2018-10-06T10:25:05.970Z,22.20
2018-10-06T10:27:33.529Z,22.40
2018-10-06T10:30:01.126Z,22.50
2018-10-06T10:32:28.706Z,22.70
2018-10-06T10:34:56.469Z,22.70
2018-10-06T10:37:24.064Z,22.80
2018-10-06T10:39:51.838Z,22.90
2018-10-06T10:42:19.431Z,22.90
2018-10-06T10:44:47.066Z,23.10
2018-10-06T10:47:14.682Z,23.30
2018-10-06T10:49:42.278Z,23.40
2018-10-06T10:52:10.887Z,23.50
2018-10-06T10:54:38.568Z,23.60
2018-10-06T10:57:06.118Z,23.60
2018-10-06T10:59:34.741Z,23.80
2018-10-06T11:02:02.287Z,23.80
2018-10-06T11:04:29.861Z,23.80
2018-10-06T11:06:57.509Z,23.90
2018-10-06T11:09:25.085Z,23.90
2018-10-06T11:11:52.641Z,23.90
2018-10-06T11:14:20.397Z,24.00
2018-10-06T11:16:47.951Z,24.00
2018-10-06T11:19:15.542Z,23.90
2018-10-06T11:21:43.106Z,24.00
2018-10-06T11:24:10.685Z,24.10
2018-10-06T11:26:38.280Z,24.30
2018-10-06T11:29:06.098Z,24.40
2018-10-06T11:31:33.742Z,24.50
2018-10-06T11:34:01.426Z,24.60
2018-10-06T11:36:29.057Z,24.60
2018-10-06T11:38:56.681Z,24.70
2018-10-06T11:41:24.289Z,24.70
2018-10-06T11:43:52.938Z,24.70
2018-10-06T11:46:21.445Z,24.80
2018-10-06T11:48:50.335Z,24.90
2018-10-06T11:51:17.921Z,24.90
2018-10-06T11:53:45.742Z,25.00
2018-10-06T11:56:13.316Z,25.10
2018-10-06T11:58:41.225Z,24.90
2018-10-06T12:01:08.851Z,24.90
2018-10-06T12:03:36.665Z,24.90
2018-10-06T12:06:06.085Z,24.90
2018-10-06T12:08:34.109Z,25.00
2018-10-06T12:11:01.875Z,25.10
2018-10-06T12:13:29.457Z,25.20
2018-10-06T12:15:57.054Z,25.30
2018-10-06T12:18:25.444Z,25.20
2018-10-06T12:20:53.342Z,25.20
2018-10-06T12:23:21.461Z,25.30
2018-10-06T12:25:49.014Z,25.50
2018-10-06T12:28:17.017Z,25.60
2018-10-06T12:30:44.578Z,25.80
2018-10-06T12:33:12.155Z,25.70
2018-10-06T12:35:39.739Z,25.70
2018-10-06T12:38:07.325Z,25.60
2018-10-06T12:40:34.922Z,25.70
2018-10-06T12:43:02.825Z,25.80
2018-10-06T12:45:30.383Z,25.80
2018-10-06T12:47:57.970Z,25.90
2018-10-06T12:50:25.513Z,25.90
2018-10-06T12:52:53.097Z,26.00
2018-10-06T12:55:22.601Z,26.10
2018-10-06T12:57:50.604Z,26.20
2018-10-06T13:00:18.189Z,26.20
2018-10-06T13:02:45.778Z,26.20
2018-10-06T13:05:13.366Z,26.10
2018-10-06T13:07:40.940Z,26.10
2018-10-06T13:10:08.539Z,26.40
2018-10-06T13:12:36.102Z,26.60
2018-10-06T13:15:04.281Z,26.80
2018-10-06T13:17:31.829Z,27.00
2018-10-06T13:19:59.435Z,26.70
2018-10-06T13:22:27.005Z,26.70
2018-10-06T13:24:54.665Z,26.90
2018-10-06T13:27:22.241Z,27.30
2018-10-06T13:29:49.809Z,27.40
2018-10-06T13:32:17.401Z,27.50
2018-10-06T13:34:45.007Z,27.70
2018-10-06T13:37:12.586Z,27.80
2018-10-06T13:39:40.269Z,27.70
2018-10-06T13:42:07.957Z,28.00
2018-10-06T13:44:36.506Z,27.90
2018-10-06T13:47:04.389Z,27.30
2018-10-06T13:49:31.977Z,26.80
2018-10-06T13:51:59.764Z,26.70
2018-10-06T13:54:27.420Z,26.70
2018-10-06T13:56:55.045Z,27.10
2018-10-06T13:59:23.417Z,27.60
2018-10-06T14:01:51.048Z,27.90
2018-10-06T14:04:18.644Z,28.30
2018-10-06T14:06:46.197Z,28.40
2018-10-06T14:09:13.774Z,28.70
2018-10-06T14:11:41.330Z,28.90
2018-10-06T14:14:08.990Z,29.00
2018-10-06T14:16:37.429Z,29.00
2018-10-06T14:19:05.878Z,30.00
2018-10-06T14:21:33.444Z,30.90
2018-10-06T14:24:01.182Z,31.70
2018-10-06T14:26:30.285Z,32.80
2018-10-06T14:28:57.990Z,33.40
2018-10-06T14:31:25.805Z,33.60
2018-10-06T14:33:53.431Z,33.70
2018-10-06T14:36:21.082Z,34.40
2018-10-06T14:38:48.623Z,34.20
2018-10-06T14:41:17.429Z,34.10
2018-10-06T14:43:45.479Z,33.60
2018-10-06T14:46:13.493Z,32.70
2018-10-06T14:48:41.325Z,32.80
2018-10-06T14:51:09.994Z,32.40
2018-10-06T14:53:37.553Z,32.10
2018-10-06T14:56:05.908Z,31.70
2018-10-06T14:58:33.983Z,31.40
2018-10-06T15:01:01.629Z,31.20
2018-10-06T15:03:29.231Z,31.10
2018-10-06T15:05:57.114Z,31.20
2018-10-06T15:10:52.221Z,31.80
2018-10-06T15:13:19.965Z,32.30
2018-10-06T15:15:47.545Z,32.50
2018-10-06T15:18:15.189Z,31.90
2018-10-06T15:20:42.770Z,31.50
2018-10-06T15:23:10.462Z,31.50
2018-10-06T15:25:38.066Z,31.80
2018-10-06T15:28:05.713Z,31.80
2018-10-06T15:30:33.277Z,31.90
2018-10-06T15:33:00.929Z,32.30
2018-10-06T15:35:28.538Z,32.70
2018-10-06T15:37:56.196Z,33.40
2018-10-06T15:40:23.746Z,33.80
2018-10-06T15:42:51.391Z,33.50
2018-10-06T15:45:19.017Z,33.60
2018-10-06T15:47:46.606Z,34.20
2018-10-06T15:50:14.210Z,34.20
2018-10-06T15:52:42.084Z,34.00
2018-10-06T15:55:10.065Z,33.30
2018-10-06T15:57:37.713Z,33.10
2018-10-06T16:00:05.377Z,33.30
2018-10-06T16:02:33.015Z,32.80
2018-10-06T16:05:00.747Z,31.90
2018-10-06T16:07:28.346Z,31.60
2018-10-06T16:09:56.054Z,31.70
2018-10-06T16:12:23.670Z,32.20
2018-10-06T16:14:51.214Z,31.90
2018-10-06T16:17:19.629Z,31.90
2018-10-06T16:19:47.401Z,31.60
2018-10-06T16:22:14.981Z,31.20
2018-10-06T16:24:42.550Z,31.00
2018-10-06T16:27:10.130Z,31.30
2018-10-06T16:29:37.687Z,30.40
2018-10-06T16:32:05.365Z,29.30
2018-10-06T16:34:32.962Z,27.80
2018-10-06T16:37:00.602Z,26.70
2018-10-06T16:39:28.185Z,25.70
2018-10-06T16:41:56.399Z,25.00
2018-10-06T16:44:23.881Z,24.50
2018-10-06T16:46:51.457Z,24.00
2018-10-06T16:49:19.064Z,23.60
2018-10-06T16:51:46.691Z,23.40
2018-10-06T16:54:15.073Z,23.00
2018-10-06T16:56:42.772Z,22.80
2018-10-06T16:59:10.338Z,22.70
2018-10-06T17:01:37.984Z,22.50
2018-10-06T17:04:05.553Z,22.30
2018-10-06T17:06:33.183Z,22.10
2018-10-06T17:09:01.331Z,22.00
2018-10-06T17:11:28.916Z,21.80
2018-10-06T17:13:57.292Z,21.70
2018-10-06T17:16:24.890Z,21.50
2018-10-06T17:18:55.558Z,21.50
2018-10-06T17:21:25.882Z,21.40
2018-10-06T17:23:53.630Z,21.30
2018-10-06T17:26:21.901Z,21.20
2018-10-06T17:28:49.489Z,21.00
2018-10-06T17:31:17.176Z,20.80
2018-10-06T17:33:45.809Z,20.70
2018-10-06T17:36:13.380Z,20.60
2018-10-06T17:38:41.225Z,20.50
2018-10-06T17:41:10.875Z,20.40
2018-10-06T17:43:38.539Z,20.40
2018-10-06T17:46:06.238Z,20.30
2018-10-06T17:48:33.853Z,20.20
2018-10-06T17:51:01.406Z,20.10
2018-10-06T17:53:28.976Z,20.00
2018-10-06T17:55:56.553Z,19.90
2018-10-06T17:58:24.291Z,19.80
2018-10-06T18:00:51.829Z,19.60
2018-10-06T18:03:19.480Z,19.60
2018-10-06T18:05:47.070Z,19.50
2018-10-06T18:08:14.712Z,19.40
2018-10-06T18:10:42.293Z,19.40
2018-10-06T18:13:09.833Z,19.30
2018-10-06T18:15:37.659Z,19.30
2018-10-06T18:18:05.523Z,19.20
2018-10-06T18:20:33.289Z,19.20
2018-10-06T18:23:00.741Z,19.10
2018-10-06T18:25:28.346Z,19.10
2018-10-06T18:27:56.077Z,19.10
2018-10-06T18:30:23.661Z,19.10
2018-10-06T18:32:51.384Z,19.10
2018-10-06T18:35:19.021Z,19.00
2018-10-06T18:37:49.188Z,19.10
2018-10-06T18:40:16.863Z,18.90
2018-10-06T18:42:44.734Z,18.90
2018-10-06T18:45:12.340Z,18.80
2018-10-06T18:47:41.684Z,18.90
2018-10-06T18:50:11.123Z,18.80
2018-10-06T18:52:38.845Z,18.80
2018-10-06T18:55:06.673Z,18.70
2018-10-06T18:57:34.368Z,18.70
2018-10-06T19:00:01.917Z,18.50
2018-10-06T19:02:29.518Z,18.40
2018-10-06T19:04:57.155Z,18.50
2018-10-06T19:07:25.960Z,18.50
2018-10-06T19:09:55.773Z,18.50
2018-10-06T19:12:23.537Z,18.50
2018-10-06T19:14:51.095Z,18.50
2018-10-06T19:17:18.951Z,18.40
2018-10-06T19:19:46.499Z,18.30
2018-10-06T19:22:14.105Z,18.30
2018-10-06T19:24:41.701Z,18.10
2018-10-06T19:27:09.875Z,18.10
2018-10-06T19:29:37.472Z,17.90
2018-10-06T19:32:05.082Z,17.90
2018-10-06T19:34:32.628Z,17.80
2018-10-06T19:37:00.877Z,17.70
2018-10-06T19:39:28.440Z,17.70
2018-10-06T19:41:56.097Z,17.70
2018-10-06T19:44:23.671Z,17.60
2018-10-06T19:46:51.213Z,17.60
2018-10-06T19:49:18.796Z,17.50
2018-10-06T19:51:46.417Z,17.60
2018-10-06T19:54:14.481Z,17.50
2018-10-06T19:56:43.125Z,17.40
2018-10-06T19:59:10.696Z,17.40
2018-10-06T20:01:38.438Z,17.30
2018-10-06T20:04:06.402Z,17.30
2018-10-06T20:06:34.110Z,17.30
2018-10-06T20:09:02.054Z,17.20
2018-10-06T20:11:29.700Z,17.10
2018-10-06T20:13:57.274Z,17.00
2018-10-06T20:16:24.823Z,17.00
2018-10-06T20:18:52.408Z,16.90
2018-10-06T20:21:19.953Z,16.90
2018-10-06T20:23:47.541Z,16.90
2018-10-06T20:26:15.092Z,16.90
2018-10-06T20:28:42.677Z,16.90
2018-10-06T20:31:10.251Z,16.90
2018-10-06T20:33:37.834Z,16.80
2018-10-06T20:36:05.432Z,16.80
2018-10-06T20:38:33.014Z,16.80
2018-10-06T20:41:01.332Z,16.70
2018-10-06T20:43:28.921Z,16.70
2018-10-06T20:45:56.586Z,16.60
2018-10-06T20:48:24.386Z,16.60
2018-10-06T20:50:51.980Z,16.50
2018-10-06T20:53:19.721Z,16.50
2018-10-06T20:55:47.201Z,16.50
2018-10-06T20:58:15.809Z,16.40
2018-10-06T21:00:43.398Z,16.50
2018-10-06T21:03:10.998Z,16.40
2018-10-06T21:05:38.578Z,16.40
2018-10-06T21:08:06.226Z,16.40
2018-10-06T21:10:33.904Z,16.50
2018-10-06T21:13:01.502Z,16.40
2018-10-06T21:15:29.135Z,16.50
2018-10-06T21:17:56.693Z,16.50
2018-10-06T21:20:24.389Z,16.50
2018-10-06T21:22:52.105Z,16.50
2018-10-06T21:25:19.837Z,16.40
2018-10-06T21:27:48.293Z,16.20
2018-10-06T21:30:15.982Z,16.00
2018-10-06T21:32:43.729Z,16.00
2018-10-06T21:35:11.485Z,15.90
2018-10-06T21:37:39.585Z,16.00
2018-10-06T21:40:07.211Z,15.80
2018-10-06T21:42:34.749Z,15.80
2018-10-06T21:45:02.355Z,15.70
2018-10-06T21:47:29.938Z,15.60
2018-10-06T21:49:57.543Z,15.50
2018-10-06T21:52:25.365Z,15.40
2018-10-06T21:54:53.094Z,15.40
2018-10-06T21:57:20.663Z,15.40
2018-10-06T21:59:48.273Z,15.30
2018-10-06T22:02:15.857Z,15.20
2018-10-06T22:04:43.482Z,15.20
2018-10-06T22:07:11.164Z,15.30
2018-10-06T22:09:38.773Z,15.30
2018-10-06T22:12:06.332Z,15.30
2018-10-06T22:14:34.009Z,15.30
2018-10-06T22:17:01.605Z,15.20
2018-10-06T22:19:29.157Z,15.00
2018-10-06T22:21:56.740Z,15.00
2018-10-06T22:24:24.327Z,14.90
2018-10-06T22:26:52.037Z,14.80
2018-10-06T22:29:19.689Z,14.80
2018-10-06T22:31:47.244Z,14.70
2018-10-06T22:34:14.842Z,14.70
2018-10-06T22:36:42.443Z,14.70
2018-10-06T22:39:10.085Z,14.80
2018-10-06T22:41:38.423Z,14.90
2018-10-06T22:44:06.009Z,14.80
2018-10-06T22:46:33.639Z,14.80
2018-10-06T22:49:01.197Z,14.90
2018-10-06T22:51:29.161Z,15.00
2018-10-06T22:53:56.781Z,15.00
2018-10-06T22:56:24.378Z,14.90
2018-10-06T22:58:53.740Z,15.00
2018-10-06T23:01:21.486Z,14.90
2018-10-06T23:03:49.170Z,14.90
2018-10-06T23:06:16.773Z,14.90
2018-10-06T23:08:44.335Z,14.80
2018-10-06T23:11:11.917Z,14.70
2018-10-06T23:13:39.441Z,14.90
2018-10-06T23:16:07.575Z,14.90
2018-10-06T23:18:35.285Z,14.90
2018-10-06T23:21:02.860Z,14.80
2018-10-06T23:23:30.424Z,14.80
2018-10-06T23:25:58.067Z,14.80
2018-10-06T23:28:25.590Z,14.70
2018-10-06T23:30:55.688Z,14.60
2018-10-06T23:33:23.333Z,14.60
2018-10-06T23:35:50.909Z,14.50
2018-10-06T23:38:19.142Z,14.50
2018-10-06T23:40:46.709Z,14.50
2018-10-06T23:43:14.324Z,14.50
2018-10-06T23:45:42.504Z,14.30
2018-10-06T23:48:10.109Z,14.30
2018-10-06T23:50:37.711Z,14.30
2018-10-06T23:53:05.258Z,14.30
2018-10-06T23:55:33.863Z,14.50
2018-10-06T23:58:01.422Z,14.60
